Time;durP1;ratioP1;P1;durP2;ratioP2;P2;SDS_P1;SDS_P2;PMS_P1;PMS_P2;Temp;Humidity;BMP_temperature;BMP_pressure;BME280_temperature;BME280_humidity;BME280_pressure;Samples;Min_cycle;Max_cycle;Signal;HPM_P1;HPM_P2
2022/11/20 00:00:40;;;;;;;19.40;10.40;;;1.40;99.90;;;;;;5008344;28;20286;-69
2022/11/20 00:03:06;;;;;;;16.47;10.30;;;1.30;99.90;;;;;;5004703;28;20669;-69
2022/11/20 00:05:32;;;;;;;17.10;10.20;;;1.40;99.90;;;;;;5009742;28;20692;-69
2022/11/20 00:07:58;;;;;;;14.80;10.10;;;1.40;99.90;;;;;;5006509;28;20281;-69
2022/11/20 00:10:24;;;;;;;14.77;9.73;;;1.40;99.90;;;;;;5005647;28;20219;-68
2022/11/20 00:12:49;;;;;;;20.07;10.13;;;1.40;99.90;;;;;;5009367;28;20211;-69
2022/11/20 00:15:15;;;;;;;15.43;9.50;;;1.40;99.90;;;;;;5008796;28;20215;-69
2022/11/20 00:17:40;;;;;;;18.33;9.47;;;1.40;99.90;;;;;;5002807;28;20175;-69
2022/11/20 00:20:06;;;;;;;15.53;9.33;;;1.30;99.90;;;;;;5004988;28;20299;-69
2022/11/20 00:22:32;;;;;;;19.97;9.90;;;1.40;99.90;;;;;;5003177;28;20213;-69
2022/11/20 00:24:57;;;;;;;17.20;10.03;;;1.30;99.90;;;;;;5001727;28;20862;-70
2022/11/20 00:27:23;;;;;;;15.33;9.23;;;1.30;99.90;;;;;;5009187;28;20215;-69
2022/11/20 00:29:49;;;;;;;18.00;10.10;;;1.40;99.90;;;;;;5009491;28;20181;-69
2022/11/20 00:32:14;;;;;;;15.47;9.60;;;1.40;99.90;;;;;;5012754;28;20599;-69
2022/11/20 00:34:40;;;;;;;16.30;9.13;;;1.40;99.90;;;;;;5005635;28;20210;-69
2022/11/20 00:37:06;;;;;;;18.10;10.20;;;1.40;99.90;;;;;;5004783;28;20256;-69
2022/11/20 00:39:31;;;;;;;16.30;10.40;;;1.40;99.90;;;;;;5008569;28;20276;-69
2022/11/20 00:41:57;;;;;;;14.50;9.20;;;1.30;99.90;;;;;;5035202;23;20696;-69
2022/11/20 00:44:23;;;;;;;14.63;9.30;;;1.30;99.90;;;;;;5033841;28;20211;-71
2022/11/20 00:46:48;;;;;;;15.60;8.80;;;1.40;99.90;;;;;;5037225;28;20765;-69
2022/11/20 00:49:14;;;;;;;15.73;9.13;;;1.30;99.90;;;;;;5034606;28;20593;-68
2022/11/20 00:51:39;;;;;;;16.27;8.60;;;1.30;99.90;;;;;;5030439;28;20210;-69
2022/11/20 00:54:06;;;;;;;15.83;9.57;;;1.30;99.90;;;;;;5027440;28;20228;-69
2022/11/20 00:56:32;;;;;;;14.47;9.57;;;1.30;99.90;;;;;;5032093;28;20212;-70
2022/11/20 00:58:59;;;;;;;17.23;8.93;;;1.30;99.90;;;;;;5030610;28;20591;-72
2022/11/20 01:01:26;;;;;;;17.37;9.43;;;1.40;99.90;;;;;;5028192;28;20217;-69
2022/11/20 01:03:55;;;;;;;14.33;8.67;;;1.30;99.90;;;;;;5032279;28;20220;-69
2022/11/20 01:06:35;;;;;;;16.40;9.93;;;1.30;99.90;;;;;;5029023;28;20608;-71
2022/11/20 01:09:04;;;;;;;16.27;9.83;;;1.30;99.90;;;;;;5029601;28;20553;-71
2022/11/20 01:11:35;;;;;;;15.57;9.80;;;1.30;99.90;;;;;;5029291;28;20245;-69
2022/11/20 01:14:03;;;;;;;17.23;9.97;;;1.20;99.90;;;;;;5042149;28;20652;-71
2022/11/20 01:16:37;;;;;;;15.97;9.47;;;1.40;99.90;;;;;;5033479;28;20278;-70
2022/11/20 01:19:05;;;;;;;17.03;9.97;;;1.30;99.90;;;;;;5028308;28;20212;-71
2022/11/20 01:21:37;;;;;;;15.73;9.60;;;1.30;99.90;;;;;;5028176;28;20229;-70
2022/11/20 01:24:04;;;;;;;16.40;10.10;;;1.40;99.90;;;;;;5029625;28;20968;-72
2022/11/20 01:26:33;;;;;;;15.93;9.43;;;1.40;99.90;;;;;;5027340;28;20214;-70
2022/11/20 01:28:59;;;;;;;15.47;9.40;;;1.40;99.90;;;;;;5043615;28;20220;-71
2022/11/20 01:31:36;;;;;;;15.80;9.27;;;1.40;99.90;;;;;;5028707;28;20217;-70
2022/11/20 01:34:06;;;;;;;17.73;9.83;;;1.40;99.90;;;;;;5025840;28;20219;-70
2022/11/20 01:36:33;;;;;;;14.40;9.90;;;1.40;99.90;;;;;;5031288;28;20272;-70
2022/11/20 01:39:02;;;;;;;17.13;10.13;;;1.40;99.90;;;;;;5028555;28;20172;-70
2022/11/20 01:44:17;;;;;;;18.17;9.77;;;1.40;99.90;;;;;;5030237;28;20285;-71
2022/11/20 01:47:04;;;;;;;17.70;9.93;;;1.40;99.90;;;;;;5025299;28;20303;-71
2022/11/20 01:49:42;;;;;;;16.40;10.07;;;1.40;99.90;;;;;;5030443;28;20782;-70
2022/11/20 01:52:19;;;;;;;16.87;10.43;;;1.40;99.90;;;;;;5029338;28;20223;-70
2022/11/20 01:55:03;;;;;;;17.17;10.33;;;1.50;99.90;;;;;;5027752;28;20253;-71
2022/11/20 01:57:31;;;;;;;16.97;10.57;;;1.40;99.90;;;;;;5031074;28;20293;-69
2022/11/20 02:00:18;;;;;;;17.20;10.40;;;1.30;99.90;;;;;;5025185;28;20198;-70
2022/11/20 02:02:55;;;;;;;20.13;10.37;;;1.40;99.90;;;;;;5045537;28;20209;-70
2022/11/20 02:05:47;;;;;;;16.10;10.20;;;1.40;99.90;;;;;;5030675;28;20241;-71
2022/11/20 02:08:13;;;;;;;17.77;9.93;;;1.40;99.90;;;;;;5024441;28;20215;-71
2022/11/20 02:10:38;;;;;;;17.63;10.27;;;1.20;99.90;;;;;;5030200;28;20279;-70
2022/11/20 02:15:49;;;;;;;16.53;10.53;;;1.20;99.90;;;;;;5022074;28;20772;-70
2022/11/20 02:18:18;;;;;;;19.03;10.57;;;1.30;99.90;;;;;;5030200;28;20655;-70
2022/11/20 02:20:46;;;;;;;16.67;10.90;;;1.20;99.90;;;;;;5031090;28;20215;-71
2022/11/20 02:23:16;;;;;;;17.30;10.97;;;1.20;99.90;;;;;;5029808;28;20702;-71
2022/11/20 02:25:43;;;;;;;19.13;11.73;;;1.20;99.90;;;;;;5028110;28;20616;-70
2022/11/20 02:28:10;;;;;;;16.60;10.60;;;1.20;99.90;;;;;;5024133;28;20212;-70
2022/11/20 02:30:35;;;;;;;21.00;11.73;;;1.10;99.90;;;;;;5029299;28;20642;-70
2022/11/20 02:33:01;;;;;;;19.77;10.67;;;1.20;99.90;;;;;;5027331;28;20180;-70
2022/11/20 02:35:26;;;;;;;18.20;11.03;;;1.20;99.90;;;;;;5028473;28;20227;-70
2022/11/20 02:37:55;;;;;;;17.90;10.70;;;1.20;99.90;;;;;;5030268;28;20595;-70
2022/11/20 02:40:21;;;;;;;17.57;10.77;;;1.20;99.90;;;;;;5021522;28;20258;-70
2022/11/20 02:42:47;;;;;;;18.50;11.70;;;1.20;99.90;;;;;;5027948;28;20713;-70
2022/11/20 02:45:13;;;;;;;19.23;10.97;;;1.20;99.90;;;;;;5029613;28;20184;-70
2022/11/20 02:47:38;;;;;;;17.67;10.97;;;1.30;99.90;;;;;;5031114;28;20206;-70
2022/11/20 02:50:05;;;;;;;20.27;10.97;;;1.30;99.90;;;;;;5027775;28;20237;-70
2022/11/20 02:52:31;;;;;;;21.63;11.40;;;1.30;99.90;;;;;;5027699;28;20559;-70
2022/11/20 02:54:56;;;;;;;17.93;10.50;;;1.30;99.90;;;;;;5025265;28;20214;-70
2022/11/20 02:57:22;;;;;;;17.63;10.50;;;1.30;99.90;;;;;;5027930;28;20283;-71
2022/11/20 02:59:48;;;;;;;23.57;13.03;;;1.30;99.90;;;;;;5030148;28;20205;-70
2022/11/20 03:02:13;;;;;;;17.20;10.57;;;1.30;99.90;;;;;;5024025;28;20220;-70
2022/11/20 03:04:39;;;;;;;21.67;12.20;;;1.30;99.90;;;;;;5029404;28;20304;-70
2022/11/20 03:07:04;;;;;;;21.20;12.23;;;1.20;99.90;;;;;;5025130;28;20246;-71
2022/11/20 03:09:30;;;;;;;20.33;11.97;;;1.20;99.90;;;;;;5025872;28;20219;-69
2022/11/20 03:11:56;;;;;;;21.70;11.80;;;1.20;99.90;;;;;;5029577;28;20295;-68
2022/11/20 03:14:22;;;;;;;20.87;12.33;;;1.20;99.90;;;;;;5021287;28;20248;-70
2022/11/20 03:16:47;;;;;;;19.47;11.93;;;1.20;99.90;;;;;;5029769;28;20297;-70
2022/11/20 03:19:13;;;;;;;17.60;11.07;;;1.20;99.90;;;;;;5026586;28;20205;-72
2022/11/20 03:21:39;;;;;;;19.63;11.87;;;1.30;99.90;;;;;;5024367;28;20223;-70
2022/11/20 03:24:05;;;;;;;22.00;12.10;;;1.20;99.90;;;;;;5025420;28;20650;-70
2022/11/20 03:26:31;;;;;;;23.50;12.20;;;1.20;99.90;;;;;;5026223;28;20207;-70
2022/11/20 03:29:03;;;;;;;20.00;11.57;;;1.20;99.90;;;;;;5030710;28;20217;-71
2022/11/20 03:31:34;;;;;;;21.43;12.53;;;1.20;99.90;;;;;;5030710;28;20288;-68
2022/11/20 03:34:01;;;;;;;20.13;12.10;;;1.20;99.90;;;;;;5030577;28;20212;-70
2022/11/20 03:36:27;;;;;;;20.53;11.53;;;1.20;99.90;;;;;;5030832;28;20202;-71
2022/11/20 03:38:54;;;;;;;22.03;12.67;;;1.30;99.90;;;;;;5031117;28;20634;-69
2022/11/20 03:41:31;;;;;;;19.63;11.83;;;1.20;99.90;;;;;;5030055;28;20273;-70
2022/11/20 03:43:59;;;;;;;18.57;11.73;;;1.30;99.90;;;;;;5030620;28;20220;-70
2022/11/20 03:46:25;;;;;;;20.37;12.70;;;1.30;99.90;;;;;;5030696;28;20215;-70
2022/11/20 03:48:51;;;;;;;20.77;10.77;;;1.20;99.90;;;;;;5025819;28;20712;-70
2022/11/20 03:51:18;;;;;;;19.60;11.37;;;1.20;99.90;;;;;;5029990;28;20306;-70
2022/11/20 03:53:46;;;;;;;20.70;12.13;;;1.20;99.90;;;;;;5030848;28;20206;-70
2022/11/20 03:56:13;;;;;;;19.90;12.17;;;1.20;99.90;;;;;;5029188;28;20219;-70
2022/11/20 03:58:40;;;;;;;19.07;12.43;;;1.20;99.90;;;;;;5030682;28;20212;-70
2022/11/20 04:01:15;;;;;;;23.70;11.83;;;1.20;99.90;;;;;;5021087;28;20249;-70
2022/11/20 04:03:41;;;;;;;18.60;11.47;;;1.20;99.90;;;;;;5027139;28;20208;-70
2022/11/20 04:06:22;;;;;;;22.30;13.00;;;1.10;99.90;;;;;;5027706;28;20214;-70
2022/11/20 04:08:48;;;;;;;18.93;11.73;;;1.10;99.90;;;;;;5040104;28;20217;-70
2022/11/20 04:11:31;;;;;;;19.13;11.63;;;1.10;99.90;;;;;;5028373;28;20216;-70
2022/11/20 04:13:59;;;;;;;20.70;11.80;;;1.00;99.90;;;;;;5027264;28;20218;-70
2022/11/20 04:16:26;;;;;;;18.70;12.20;;;1.10;99.90;;;;;;5026002;28;20233;-71
2022/11/20 04:18:58;;;;;;;17.37;11.90;;;1.10;99.90;;;;;;5030035;28;20715;-71
2022/11/20 04:21:24;;;;;;;20.13;12.23;;;1.10;99.90;;;;;;5023198;28;20548;-71
2022/11/20 04:23:52;;;;;;;19.53;11.87;;;1.10;99.90;;;;;;5024922;28;20583;-70
2022/11/20 04:26:18;;;;;;;21.57;12.67;;;1.10;99.90;;;;;;5028501;28;20595;-71
2022/11/20 04:28:44;;;;;;;20.77;11.87;;;1.10;99.90;;;;;;5030134;28;20617;-71
2022/11/20 04:31:19;;;;;;;18.80;12.27;;;1.10;99.90;;;;;;5023772;28;20220;-71
2022/11/20 04:33:45;;;;;;;23.07;12.07;;;1.10;99.90;;;;;;5030182;28;20211;-71
2022/11/20 04:36:12;;;;;;;18.27;12.10;;;1.20;99.90;;;;;;5022215;28;20217;-71
2022/11/20 04:38:38;;;;;;;19.30;11.33;;;1.10;99.90;;;;;;5030520;28;20626;-70
2022/11/20 04:41:06;;;;;;;19.00;11.70;;;1.10;99.90;;;;;;5029349;28;20248;-71
2022/11/20 04:43:32;;;;;;;19.77;12.30;;;1.10;99.90;;;;;;5030016;28;20267;-71
2022/11/20 04:45:59;;;;;;;22.07;12.50;;;1.10;99.90;;;;;;5029710;28;20293;-70
2022/11/20 04:48:29;;;;;;;20.17;12.27;;;1.20;99.90;;;;;;5022051;28;20187;-70
2022/11/20 04:50:55;;;;;;;20.83;11.97;;;1.10;99.90;;;;;;5031539;28;20209;-70
2022/11/20 04:53:22;;;;;;;20.87;12.80;;;1.10;99.90;;;;;;5027584;28;20222;-70
2022/11/20 04:55:47;;;;;;;19.97;11.73;;;1.10;99.90;;;;;;5039926;28;20220;-71
2022/11/20 04:58:13;;;;;;;20.83;13.30;;;1.10;99.90;;;;;;5024208;28;20599;-70
2022/11/20 05:00:39;;;;;;;23.73;12.47;;;1.10;99.90;;;;;;5029604;28;20246;-70
2022/11/20 05:03:05;;;;;;;22.33;12.57;;;1.10;99.90;;;;;;5029931;28;20191;-70
2022/11/20 05:05:31;;;;;;;20.03;11.80;;;1.20;99.90;;;;;;5029788;28;20219;-71
2022/11/20 05:07:57;;;;;;;23.27;13.40;;;1.20;99.90;;;;;;5029726;28;20208;-71
2022/11/20 05:10:24;;;;;;;18.10;11.60;;;1.10;99.90;;;;;;5028121;28;20220;-70
2022/11/20 05:12:50;;;;;;;19.03;11.90;;;1.10;99.90;;;;;;5029594;28;20214;-70
2022/11/20 05:15:15;;;;;;;19.93;11.07;;;1.00;99.90;;;;;;5029367;28;20585;-70
2022/11/20 05:17:46;;;;;;;21.20;12.43;;;1.10;99.90;;;;;;5030144;28;20273;-71
2022/11/20 05:20:11;;;;;;;20.30;12.50;;;1.10;99.90;;;;;;5028946;28;20240;-70
2022/11/20 05:22:37;;;;;;;21.67;12.17;;;1.00;99.90;;;;;;5029690;28;20268;-70
2022/11/20 05:25:03;;;;;;;22.57;13.30;;;1.10;99.90;;;;;;5029487;28;20219;-70
2022/11/20 05:27:28;;;;;;;23.20;13.43;;;1.00;99.90;;;;;;5029391;28;20295;-69
2022/11/20 05:29:54;;;;;;;22.43;13.13;;;1.10;99.90;;;;;;5031387;28;20664;-70
2022/11/20 05:32:19;;;;;;;20.23;12.57;;;1.10;99.90;;;;;;5033371;28;20330;-70
2022/11/20 05:34:45;;;;;;;20.17;12.70;;;1.10;99.90;;;;;;5028092;28;20217;-70
2022/11/20 05:37:10;;;;;;;20.03;12.23;;;1.10;99.90;;;;;;5025432;28;20251;-71
2022/11/20 05:39:36;;;;;;;23.30;13.00;;;1.20;99.90;;;;;;5031888;28;20269;-70
2022/11/20 05:44:46;;;;;;;22.10;12.10;;;1.20;99.90;;;;;;5026697;28;20301;-70
2022/11/20 05:47:11;;;;;;;19.70;11.90;;;1.20;99.90;;;;;;5045925;28;20676;-70
2022/11/20 05:49:37;;;;;;;21.97;12.67;;;1.30;99.90;;;;;;5044942;28;20219;-70
2022/11/20 05:52:02;;;;;;;20.73;11.30;;;1.30;99.90;;;;;;5023850;28;20295;-70
2022/11/20 05:54:28;;;;;;;20.77;12.43;;;1.30;99.90;;;;;;5032371;28;20228;-67
2022/11/20 05:56:54;;;;;;;22.23;12.83;;;1.20;99.90;;;;;;5026728;28;20214;-71
2022/11/20 05:59:19;;;;;;;20.87;11.83;;;1.30;99.90;;;;;;5029551;28;20220;-70
2022/11/20 06:01:45;;;;;;;21.67;11.40;;;1.30;99.90;;;;;;5028751;28;20219;-70
2022/11/20 06:04:10;;;;;;;20.27;12.03;;;1.30;99.90;;;;;;5024874;28;20604;-70
2022/11/20 06:06:36;;;;;;;20.37;11.30;;;1.30;99.90;;;;;;5030570;28;20215;-70
2022/11/20 06:09:01;;;;;;;21.23;12.63;;;1.30;99.90;;;;;;5027808;28;20207;-70
2022/11/20 06:11:27;;;;;;;19.70;11.80;;;1.30;99.90;;;;;;5025116;28;20251;-71
2022/11/20 06:13:53;;;;;;;23.70;12.37;;;1.30;99.90;;;;;;5030489;28;20212;-71
2022/11/20 06:16:20;;;;;;;20.97;12.27;;;1.30;99.90;;;;;;5026059;28;20268;-71
2022/11/20 06:18:46;;;;;;;24.57;12.47;;;1.30;99.90;;;;;;5028465;28;20214;-71
2022/11/20 06:21:17;;;;;;;18.50;11.73;;;1.20;99.90;;;;;;5030108;28;22351;-71
2022/11/20 06:23:44;;;;;;;21.57;12.00;;;1.20;99.90;;;;;;5026617;28;20184;-71
2022/11/20 06:26:16;;;;;;;19.13;11.47;;;1.20;99.90;;;;;;5042601;28;20217;-71
2022/11/20 06:28:41;;;;;;;22.27;11.93;;;1.10;99.90;;;;;;5028296;28;20786;-70
2022/11/20 06:31:10;;;;;;;17.37;11.33;;;1.10;99.90;;;;;;5024057;28;20219;-72
2022/11/20 06:33:36;;;;;;;19.53;12.33;;;1.10;99.90;;;;;;5030862;28;20589;-71
2022/11/20 06:36:03;;;;;;;20.00;12.43;;;1.00;99.90;;;;;;5027213;28;20211;-71
2022/11/20 06:38:29;;;;;;;19.27;10.80;;;0.90;99.90;;;;;;5026259;28;20214;-69
2022/11/20 06:43:23;;;;;;;21.27;12.33;;;1.00;99.90;;;;;;5018414;28;20221;-68
2022/11/20 06:45:53;;;;;;;24.63;13.30;;;1.00;99.90;;;;;;5012057;28;20239;-69
2022/11/20 06:48:19;;;;;;;23.73;13.17;;;1.00;99.90;;;;;;5001417;28;20179;-69
2022/11/20 06:50:45;;;;;;;19.73;11.60;;;1.00;99.90;;;;;;5010442;28;20174;-67
2022/11/20 06:53:10;;;;;;;23.53;13.80;;;1.00;99.90;;;;;;5020767;28;20220;-68
2022/11/20 06:55:36;;;;;;;20.30;11.77;;;1.10;99.90;;;;;;5026051;28;20306;-69
2022/11/20 06:58:01;;;;;;;20.07;12.43;;;1.10;99.90;;;;;;5021554;28;20589;-68
2022/11/20 07:00:27;;;;;;;18.47;11.10;;;1.10;99.90;;;;;;5023661;28;20190;-68
2022/11/20 07:02:53;;;;;;;19.77;12.10;;;1.10;99.90;;;;;;5019883;28;20684;-65
2022/11/20 07:05:18;;;;;;;20.80;12.47;;;1.10;99.90;;;;;;5022767;28;20229;-68
2022/11/20 07:07:44;;;;;;;20.10;12.40;;;1.20;99.90;;;;;;5021238;28;20219;-69
2022/11/20 07:10:10;;;;;;;18.87;11.73;;;1.20;99.90;;;;;;5019103;28;20208;-69
2022/11/20 07:12:35;;;;;;;20.60;12.23;;;1.20;99.90;;;;;;5022989;28;20242;-69
2022/11/20 07:15:01;;;;;;;22.63;12.40;;;1.00;99.90;;;;;;5020738;28;20188;-68
2022/11/20 07:17:27;;;;;;;21.10;12.93;;;1.10;99.90;;;;;;5030931;28;20226;-69
2022/11/20 07:19:52;;;;;;;25.23;12.93;;;1.10;99.90;;;;;;5022898;28;20238;-66
2022/11/20 07:22:21;;;;;;;20.67;11.70;;;1.10;99.90;;;;;;5022932;28;20212;-68
2022/11/20 07:24:47;;;;;;;20.97;12.10;;;1.10;99.90;;;;;;5019528;28;20270;-69
2022/11/20 07:27:12;;;;;;;22.73;12.63;;;1.10;99.90;;;;;;5023006;28;20198;-69
2022/11/20 07:29:38;;;;;;;23.47;12.87;;;1.10;99.90;;;;;;5020071;28;20656;-69
2022/11/20 07:32:04;;;;;;;19.40;12.53;;;1.20;99.90;;;;;;5019799;28;20235;-68
2022/11/20 07:34:29;;;;;;;20.93;12.73;;;1.10;99.90;;;;;;5025367;28;20222;-67
2022/11/20 07:36:55;;;;;;;22.83;11.77;;;1.10;99.90;;;;;;5019060;28;20308;-69
2022/11/20 07:39:20;;;;;;;21.57;12.70;;;1.10;99.90;;;;;;5020393;28;20241;-69
2022/11/20 07:41:46;;;;;;;24.17;14.33;;;1.10;99.90;;;;;;5020596;28;20222;-69
2022/11/20 07:44:12;;;;;;;23.43;12.90;;;1.10;99.90;;;;;;5021029;28;20230;-70
2022/11/20 07:46:37;;;;;;;19.93;12.17;;;1.00;99.90;;;;;;5022380;28;20228;-69
2022/11/20 07:49:03;;;;;;;20.87;12.70;;;1.00;99.90;;;;;;5018348;28;20216;-69
2022/11/20 07:51:29;;;;;;;20.83;12.93;;;1.00;99.90;;;;;;5027346;28;20322;-65
2022/11/20 07:53:54;;;;;;;19.67;11.43;;;1.00;99.90;;;;;;5019795;28;20176;-68
2022/11/20 07:56:20;;;;;;;23.03;11.73;;;0.90;99.90;;;;;;5018875;28;20253;-68
2022/11/20 07:58:46;;;;;;;22.67;13.03;;;1.00;99.90;;;;;;5021859;28;20214;-68
2022/11/20 08:01:11;;;;;;;21.63;12.57;;;1.00;99.90;;;;;;5019856;28;20216;-68
2022/11/20 08:03:40;;;;;;;21.77;12.83;;;1.10;99.90;;;;;;5020234;28;20214;-69
2022/11/20 08:06:06;;;;;;;25.80;13.80;;;1.10;99.90;;;;;;5029655;28;20187;-68
2022/11/20 08:08:32;;;;;;;21.67;12.20;;;1.10;99.90;;;;;;5021634;28;20606;-68
2022/11/20 08:16:26;;;;;;;20.93;12.67;;;0.90;99.90;;;;;;5015410;28;20289;-68
2022/11/20 08:18:51;;;;;;;20.73;12.93;;;1.00;99.90;;;;;;5020915;28;20664;-69
2022/11/20 08:21:17;;;;;;;21.73;12.43;;;1.00;99.90;;;;;;5020570;28;20211;-69
2022/11/20 08:23:43;;;;;;;20.73;12.87;;;1.00;99.90;;;;;;5019666;28;20708;-69
2022/11/20 08:26:08;;;;;;;22.17;12.63;;;1.00;99.90;;;;;;5018723;28;20224;-69
2022/11/20 08:28:34;;;;;;;20.77;12.10;;;1.00;99.90;;;;;;5021447;28;20218;-69
2022/11/20 08:31:00;;;;;;;24.23;12.97;;;1.10;99.90;;;;;;5017843;28;20654;-69
2022/11/20 08:33:26;;;;;;;23.80;12.50;;;1.10;99.90;;;;;;5018376;28;20577;-69
2022/11/20 08:35:51;;;;;;;23.20;13.57;;;1.10;99.90;;;;;;5021878;28;20209;-69
2022/11/20 08:38:17;;;;;;;20.23;13.40;;;1.10;99.90;;;;;;5019420;28;20219;-69
2022/11/20 08:41:23;;;;;;;21.43;12.93;;;1.00;99.90;;;;;;5020652;28;20218;-69
2022/11/20 08:43:31;;;;;;;21.50;13.50;;;1.10;99.90;;;;;;5015744;28;20706;-68
2022/11/20 08:45:57;;;;;;;20.47;12.63;;;1.10;99.90;;;;;;5020049;28;20222;-69
2022/11/20 08:48:23;;;;;;;21.33;13.27;;;1.00;99.90;;;;;;5021215;28;20234;-69
2022/11/20 08:50:48;;;;;;;21.27;12.57;;;1.00;99.90;;;;;;5024141;28;20768;-67
2022/11/20 08:53:14;;;;;;;18.30;11.57;;;1.00;99.90;;;;;;5018989;28;20212;-68
2022/11/20 08:55:40;;;;;;;23.93;13.33;;;1.10;99.90;;;;;;5020275;28;20239;-69
2022/11/20 08:58:08;;;;;;;19.93;11.93;;;1.20;99.90;;;;;;5018033;28;20599;-70
2022/11/20 09:00:34;;;;;;;22.10;13.07;;;1.20;99.90;;;;;;5020652;28;20239;-69
2022/11/20 09:03:00;;;;;;;24.27;12.43;;;1.30;99.90;;;;;;5018999;28;20250;-70
2022/11/20 09:05:26;;;;;;;24.37;13.00;;;1.40;99.90;;;;;;5024252;28;20223;-69
2022/11/20 09:07:55;;;;;;;22.30;12.63;;;1.40;99.90;;;;;;5034623;28;20217;-67
2022/11/20 09:10:21;;;;;;;23.40;13.10;;;1.30;99.90;;;;;;5021614;28;20220;-69
2022/11/20 09:12:49;;;;;;;20.43;12.17;;;1.30;99.90;;;;;;5025174;28;20207;-69
2022/11/20 09:15:14;;;;;;;22.27;12.30;;;1.30;99.90;;;;;;5023301;28;20176;-68
2022/11/20 09:17:40;;;;;;;19.63;12.47;;;1.30;99.90;;;;;;5034654;28;20341;-68
2022/11/20 09:20:06;;;;;;;26.97;13.63;;;1.30;99.90;;;;;;5023004;28;20267;-68
2022/11/20 09:22:32;;;;;;;21.37;12.80;;;1.40;99.90;;;;;;5023723;28;20563;-69
2022/11/20 09:24:58;;;;;;;22.47;12.57;;;1.40;99.90;;;;;;5020153;28;20215;-69
2022/11/20 09:27:23;;;;;;;22.57;13.63;;;1.40;99.90;;;;;;5023981;28;20190;-69
2022/11/20 09:29:49;;;;;;;20.37;12.27;;;1.30;99.90;;;;;;5022383;28;20187;-69
2022/11/20 09:32:15;;;;;;;24.57;12.67;;;1.50;99.90;;;;;;5021852;28;20582;-69
2022/11/20 09:34:40;;;;;;;19.07;12.03;;;1.50;99.90;;;;;;5026563;28;20808;-69
2022/11/20 09:37:06;;;;;;;22.63;13.13;;;1.50;99.90;;;;;;5020903;28;20741;-69
2022/11/20 09:39:31;;;;;;;21.60;12.13;;;1.50;99.90;;;;;;5023456;28;20208;-68
2022/11/20 09:42:16;;;;;;;21.73;12.40;;;1.60;99.90;;;;;;5024991;28;20259;-69
2022/11/20 09:45:01;;;;;;;19.73;11.73;;;1.50;99.90;;;;;;5024275;28;20671;-69
2022/11/20 09:47:39;;;;;;;20.80;11.90;;;1.50;99.90;;;;;;5020001;28;20241;-69
2022/11/20 09:50:25;;;;;;;20.83;12.30;;;1.50;99.90;;;;;;5027917;28;20233;-69
2022/11/20 09:53:33;;;;;;;19.20;11.03;;;1.60;99.90;;;;;;5020942;28;20215;-69
2022/11/20 09:56:02;;;;;;;21.47;12.53;;;1.60;99.90;;;;;;5027203;28;20311;-68
2022/11/20 09:58:38;;;;;;;21.97;13.20;;;1.60;99.90;;;;;;5021173;28;20217;-69
2022/11/20 10:01:19;;;;;;;23.10;12.57;;;1.60;99.90;;;;;;5020814;28;20209;-69
2022/11/20 10:03:54;;;;;;;21.77;13.43;;;1.60;99.90;;;;;;5026541;28;20208;-69
2022/11/20 10:06:31;;;;;;;20.40;11.97;;;1.70;99.90;;;;;;5029794;28;20220;-69
2022/11/20 10:09:11;;;;;;;20.40;11.40;;;1.70;99.90;;;;;;5021796;28;20204;-69
2022/11/20 10:12:06;;;;;;;20.37;11.67;;;1.80;99.90;;;;;;5022880;28;20243;-69
2022/11/20 10:15:11;;;;;;;21.50;11.30;;;1.90;99.90;;;;;;5020290;28;20212;-69
2022/11/20 10:18:02;;;;;;;18.90;12.17;;;1.90;99.90;;;;;;5023300;28;20243;-69
2022/11/20 10:20:48;;;;;;;18.53;11.90;;;1.80;99.90;;;;;;5020582;28;20245;-69
2022/11/20 10:23:41;;;;;;;21.60;11.73;;;1.80;99.90;;;;;;5026843;28;20574;-69
2022/11/20 10:26:34;;;;;;;21.27;13.07;;;1.70;99.90;;;;;;5020399;28;20209;-69
2022/11/20 10:29:13;;;;;;;22.47;12.20;;;1.70;99.90;;;;;;5021755;28;20296;-69
2022/11/20 10:31:54;;;;;;;22.23;12.20;;;1.80;99.90;;;;;;5020878;28;20637;-69
2022/11/20 10:34:23;;;;;;;20.83;11.43;;;1.80;99.90;;;;;;5023597;28;20216;-69
2022/11/20 10:36:57;;;;;;;16.87;11.50;;;1.90;99.90;;;;;;5021485;28;20235;-70
2022/11/20 10:39:40;;;;;;;18.67;11.13;;;1.90;99.90;;;;;;5017466;28;20259;-69
2022/11/20 10:42:14;;;;;;;20.10;11.27;;;2.00;99.90;;;;;;5020698;28;20228;-70
2022/11/20 10:45:02;;;;;;;21.30;12.17;;;2.00;99.90;;;;;;5036350;28;20582;-69
2022/11/20 10:47:31;;;;;;;20.00;10.80;;;2.10;99.90;;;;;;5019574;28;20216;-69
2022/11/20 10:50:02;;;;;;;17.83;11.40;;;2.20;99.90;;;;;;5026193;28;20211;-69
2022/11/20 10:53:02;;;;;;;17.50;11.30;;;2.20;99.90;;;;;;5037093;28;20268;-69
2022/11/20 10:55:41;;;;;;;19.33;11.80;;;2.20;99.90;;;;;;5020222;28;20300;-69
2022/11/20 10:58:16;;;;;;;19.37;11.40;;;2.10;99.90;;;;;;5019676;28;20220;-69
2022/11/20 11:00:42;;;;;;;19.47;12.20;;;2.20;99.90;;;;;;5022976;28;20216;-69
2022/11/20 11:03:25;;;;;;;18.87;11.47;;;2.30;99.90;;;;;;5019723;28;20208;-69
2022/11/20 11:05:59;;;;;;;18.40;10.20;;;2.30;99.90;;;;;;5020388;28;20271;-69
2022/11/20 11:08:28;;;;;;;16.63;10.73;;;2.30;99.90;;;;;;5020017;28;20264;-69
2022/11/20 11:10:57;;;;;;;15.93;11.00;;;2.60;99.90;;;;;;5019519;28;20212;-68
2022/11/20 11:13:24;;;;;;;16.10;10.83;;;2.80;99.90;;;;;;5020246;28;20220;-69
2022/11/20 11:15:50;;;;;;;17.53;10.93;;;2.80;99.90;;;;;;5021092;28;20640;-69
2022/11/20 11:18:31;;;;;;;18.17;12.37;;;2.70;99.90;;;;;;5022191;28;20201;-69
2022/11/20 11:20:59;;;;;;;16.20;10.63;;;2.70;99.90;;;;;;5019150;28;20182;-69
2022/11/20 11:23:39;;;;;;;19.50;11.10;;;2.70;99.90;;;;;;5022614;28;20739;-69
2022/11/20 11:26:18;;;;;;;16.67;10.47;;;2.70;99.90;;;;;;5019007;28;20214;-69
2022/11/20 11:28:53;;;;;;;16.33;10.40;;;2.60;99.90;;;;;;5019685;28;20740;-69
2022/11/20 11:31:27;;;;;;;16.97;10.43;;;2.70;99.90;;;;;;5023092;28;20243;-68
2022/11/20 11:34:13;;;;;;;14.73;9.27;;;2.70;99.90;;;;;;5020615;28;20240;-66
2022/11/20 11:36:39;;;;;;;17.17;10.40;;;2.50;99.90;;;;;;5020426;28;20228;-68
2022/11/20 11:39:13;;;;;;;13.53;9.37;;;2.50;99.90;;;;;;5019411;28;20189;-68
2022/11/20 11:41:39;;;;;;;16.07;8.80;;;2.40;99.90;;;;;;5022707;28;20316;-69
2022/11/20 11:47:11;;;;;;;16.60;9.70;;;2.30;99.90;;;;;;5019098;28;20224;-69
2022/11/20 11:49:36;;;;;;;17.43;10.07;;;2.20;99.90;;;;;;5025960;28;20203;-69
2022/11/20 11:52:13;;;;;;;15.83;9.23;;;2.00;99.90;;;;;;5034377;28;20327;-69
2022/11/20 11:54:54;;;;;;;12.30;8.43;;;2.00;99.90;;;;;;5022305;28;20207;-69
2022/11/20 11:57:23;;;;;;;16.17;9.70;;;2.10;99.90;;;;;;5021421;28;20208;-69
2022/11/20 12:00:00;;;;;;;15.13;9.17;;;2.10;99.90;;;;;;5019052;28;20181;-69
2022/11/20 12:02:44;;;;;;;15.47;8.80;;;2.00;99.90;;;;;;5021224;28;20250;-70
2022/11/20 12:05:13;;;;;;;18.40;10.40;;;2.10;99.90;;;;;;5023492;28;20210;-70
2022/11/20 12:07:45;;;;;;;15.87;9.47;;;2.10;99.90;;;;;;5019220;28;20212;-69
2022/11/20 12:10:22;;;;;;;16.10;9.33;;;2.10;99.90;;;;;;5019097;28;20215;-69
2022/11/20 12:12:53;;;;;;;13.47;8.33;;;2.20;99.90;;;;;;5018714;28;20217;-69
2022/11/20 12:15:42;;;;;;;16.80;9.03;;;2.20;99.90;;;;;;5019050;28;20185;-69
2022/11/20 12:18:20;;;;;;;11.63;8.03;;;2.30;99.90;;;;;;5020184;28;20209;-69
2022/11/20 12:20:51;;;;;;;14.50;8.33;;;2.40;99.90;;;;;;5026632;28;20240;-69
2022/11/20 12:23:38;;;;;;;16.83;8.70;;;2.40;99.90;;;;;;5019804;28;20295;-69
2022/11/20 12:26:13;;;;;;;12.03;7.93;;;2.40;99.90;;;;;;5018018;28;20213;-69
2022/11/20 12:28:57;;;;;;;14.80;8.77;;;2.50;99.90;;;;;;5022038;28;20597;-69
2022/11/20 12:31:45;;;;;;;11.87;8.37;;;2.50;99.90;;;;;;5021231;28;20227;-69
2022/11/20 12:34:32;;;;;;;11.57;7.50;;;2.50;99.90;;;;;;5017627;28;20260;-69
2022/11/20 12:37:28;;;;;;;11.33;7.43;;;2.40;99.90;;;;;;5019314;28;20315;-69
2022/11/20 12:40:16;;;;;;;12.83;7.53;;;2.40;99.90;;;;;;5021487;28;20211;-67
2022/11/20 12:46:27;;;;;;;12.17;6.93;;;2.50;99.90;;;;;;5011318;28;20295;-69
2022/11/20 12:48:58;;;;;;;11.80;7.10;;;2.40;99.90;;;;;;5011466;28;20683;-69
2022/11/20 12:51:50;;;;;;;12.17;7.37;;;2.30;99.90;;;;;;5012369;28;20230;-70
2022/11/20 12:54:35;;;;;;;11.07;6.97;;;2.30;99.90;;;;;;5009562;28;20245;-69
2022/11/20 12:57:24;;;;;;;12.13;7.53;;;2.30;99.90;;;;;;5008974;28;20220;-69
2022/11/20 13:00:11;;;;;;;11.77;7.60;;;2.30;99.90;;;;;;5011615;28;20856;-69
2022/11/20 13:03:21;;;;;;;12.73;7.23;;;2.30;99.90;;;;;;5010639;28;20213;-69
2022/11/20 13:06:09;;;;;;;14.50;8.00;;;2.40;99.90;;;;;;4995565;28;20212;-70
2022/11/20 13:08:38;;;;;;;11.77;7.50;;;2.30;99.90;;;;;;5011254;28;20209;-70
2022/11/20 13:11:27;;;;;;;12.03;7.57;;;2.40;99.90;;;;;;5005430;28;20213;-69
2022/11/20 13:13:56;;;;;;;12.00;7.80;;;2.30;99.90;;;;;;5005880;28;20212;-68
2022/11/20 13:16:29;;;;;;;10.60;7.43;;;2.20;99.90;;;;;;5011859;28;20604;-69